Pietro Novelli — IOTQ — position and weather

sailwx.info

Track history (hours):
 
Tides and Currents Weather Stations Pressure Air Temp Water Temp Dewpoint Dewpoint Depression Visibility Wind Speed Wind Dir Waves Ship Positions

Pietro Novelli

Last reported at 2014-Jul-31 19:21 UTC. Time now 2014-Aug-02 00:29 UTC.
Position N 37°04' E 013°24'.

Length 91 m; draft 3.8 m.

Type: Ship. MMSI: 247000300.

Date/timePositionNaut miles runAvg speedWind from/ knotsBaromVisibWave heightAir tempDewpointWater temp
2014-Jul-31 19:21N 37°04' E 013°24'1012.4
2014-Jul-31 18:33N 36°56' E 013°17'1212.1
2014-Jul-31 17:33N 36°44' E 013°15'1312.8
2014-Jul-31 16:33N 36°32' E 013°10'  
2014-Jul-28 19:20N 37°05' E 013°44'1013.2
2014-Jul-28 18:33N 36°59' E 013°55'1313.1
2014-Jul-28 17:33N 36°51' E 014°08'1313.0
2014-Jul-28 16:33N 36°45' E 014°22'1312.7
2014-Jul-28 15:33N 36°41' E 014°37'1513.2
2014-Jul-28 14:23N 36°38' E 014°56'97 4.8
2014-Jul-27 18:20N 38°13' E 015°15'2 3.0
2014-Jul-27 17:34N 38°15' E 015°16'31 1.0
2014-Jul-26 10:23N 38°46' E 015°11'  
Track history (hours):
 
Tides and Currents Weather Stations Pressure Air Temp Water Temp Dewpoint Dewpoint Depression Visibility Wind Speed Wind Dir Waves Ship Positions

Pietro Novelli

Last reported at 2014-Jul-31 19:21 UTC. Time now 2014-Aug-02 00:29 UTC.
Position N 37°04' E 013°24'.

Length 91 m; draft 3.8 m.

Type: Ship. MMSI: 247000300.

Date/timePositionNaut miles runAvg speedWind from/ knotsBaromVisibWave heightAir tempDewpointWater temp
2014-Jul-31 19:21N 37°04' E 013°24'1012.4
2014-Jul-31 18:33N 36°56' E 013°17'1212.1
2014-Jul-31 17:33N 36°44' E 013°15'1312.8
2014-Jul-31 16:33N 36°32' E 013°10'  
2014-Jul-28 19:20N 37°05' E 013°44'1013.2
2014-Jul-28 18:33N 36°59' E 013°55'1313.1
2014-Jul-28 17:33N 36°51' E 014°08'1313.0
2014-Jul-28 16:33N 36°45' E 014°22'1312.7
2014-Jul-28 15:33N 36°41' E 014°37'1513.2
2014-Jul-28 14:23N 36°38' E 014°56'97 4.8
2014-Jul-27 18:20N 38°13' E 015°15'2 3.0
2014-Jul-27 17:34N 38°15' E 015°16'31 1.0
2014-Jul-26 10:23N 38°46' E 015°11'  

Dump ship's entire track history